F/V Pasiphae 2 — FMFN — position and weather

sailwx.info

Track history (hours):
 
Tides and Currents Weather Stations Pressure Air Temp Water Temp Dewpoint Dewpoint Depression Visibility Wind Speed Wind Dir Waves Ship Positions

F/V Pasiphae 2

Last reported at 2016-Jul-24 04:29 UTC. Time now 2016-Jul-25 14:04 UTC.
Position N 47°24' W 003°22'.

Length 14 m.

Type: Fishing. MMSI: 228224800.

Date/timePositionNaut miles runAvg speedWind from/ knotsBaromVisibWave heightAir tempDewpointWater temp
2016-Jul-24 04:29N 47°24' W 003°22'8 8.8
2016-Jul-24 03:34N 47°32' W 003°22'9 9.0
2016-Jul-24 02:33N 47°41' W 003°22'3 2.9
2016-Jul-24 01:34N 47°44' W 003°22'0 0.0
2016-Jul-24 00:33N 47°44' W 003°22'0 0.0
2016-Jul-22 01:33N 47°44' W 003°22'5 4.9
2016-Jul-22 00:33N 47°39' W 003°22'10 9.5
2016-Jul-21 23:33N 47°29' W 003°23'9 9.3
2016-Jul-21 22:33N 47°20' W 003°23'10 9.5
2016-Jul-21 21:33N 47°11' W 003°23'19 1.1
2016-Jul-21 03:07N 46°51' W 003°20'20 3.5
2016-Jul-20 21:30N 47°11' W 003°24'9 8.5
2016-Jul-20 20:30N 47°19' W 003°24'9 9.4
2016-Jul-20 19:33N 47°28' W 003°23'9 9.4
2016-Jul-20 18:33N 47°37' W 003°23'6 2.1
2016-Jul-20 15:32N 47°44' W 003°22'0 0.0
2016-Jul-19 20:25N 47°43' W 003°22'8 8.9
2016-Jul-19 19:33N 47°36' W 003°22'9 9.3
2016-Jul-19 18:33N 47°26' W 003°22'9 9.1
2016-Jul-19 17:33N 47°17' W 003°22'9 9.2
2016-Jul-19 16:33N 47°08' W 003°21'10 9.1
2016-Jul-19 15:30N 46°59' W 003°21'9 0.8
2016-Jul-19 04:27N 46°50' W 003°21'7 3.7
2016-Jul-19 02:33N 46°45' W 003°13'1 0.0
2016-Jul-18 10:33N 46°44' W 003°14'22 3.5
2016-Jul-18 04:27N 47°05' W 003°25'9 8.0
2016-Jul-18 03:17N 47°14' W 003°25'7 9.2
2016-Jul-18 02:30N 47°21' W 003°24'9 9.2
2016-Jul-18 01:33N 47°30' W 003°23'9 9.3
2016-Jul-18 00:33N 47°39' W 003°22'5 0.1
2016-Jul-15 21:33N 47°44' W 003°22'5 5.2
2016-Jul-15 20:33N 47°39' W 003°22'9 9.1
2016-Jul-15 19:33N 47°30' W 003°23'9 8.8
2016-Jul-15 18:33N 47°21' W 003°24'9 8.9
2016-Jul-15 17:33N 47°12' W 003°24'7 0.6
2016-Jul-15 06:18N 47°05' W 003°25'15 5.6
2016-Jul-15 03:33N 47°20' W 003°24'9 9.3
2016-Jul-15 02:33N 47°29' W 003°23'9 9.4
2016-Jul-15 01:33N 47°39' W 003°22'5 5.1
2016-Jul-15 00:33N 47°44' W 003°22'8 7.8
2016-Jul-14 23:33N 47°36' W 003°22'9 9.0
2016-Jul-14 22:33N 47°27' W 003°23'9 8.8
2016-Jul-14 21:33N 47°18' W 003°24'  
Track history (hours):
 
Tides and Currents Weather Stations Pressure Air Temp Water Temp Dewpoint Dewpoint Depression Visibility Wind Speed Wind Dir Waves Ship Positions

F/V Pasiphae 2

Last reported at 2016-Jul-24 04:29 UTC. Time now 2016-Jul-25 14:04 UTC.
Position N 47°24' W 003°22'.

Length 14 m.

Type: Fishing. MMSI: 228224800.

Date/timePositionNaut miles runAvg speedWind from/ knotsBaromVisibWave heightAir tempDewpointWater temp
2016-Jul-24 04:29N 47°24' W 003°22'8 8.8
2016-Jul-24 03:34N 47°32' W 003°22'9 9.0
2016-Jul-24 02:33N 47°41' W 003°22'3 2.9
2016-Jul-24 01:34N 47°44' W 003°22'0 0.0
2016-Jul-24 00:33N 47°44' W 003°22'0 0.0
2016-Jul-22 01:33N 47°44' W 003°22'5 4.9
2016-Jul-22 00:33N 47°39' W 003°22'10 9.5
2016-Jul-21 23:33N 47°29' W 003°23'9 9.3
2016-Jul-21 22:33N 47°20' W 003°23'10 9.5
2016-Jul-21 21:33N 47°11' W 003°23'19 1.1
2016-Jul-21 03:07N 46°51' W 003°20'20 3.5
2016-Jul-20 21:30N 47°11' W 003°24'9 8.5
2016-Jul-20 20:30N 47°19' W 003°24'9 9.4
2016-Jul-20 19:33N 47°28' W 003°23'9 9.4
2016-Jul-20 18:33N 47°37' W 003°23'6 2.1
2016-Jul-20 15:32N 47°44' W 003°22'0 0.0
2016-Jul-19 20:25N 47°43' W 003°22'8 8.9
2016-Jul-19 19:33N 47°36' W 003°22'9 9.3
2016-Jul-19 18:33N 47°26' W 003°22'9 9.1
2016-Jul-19 17:33N 47°17' W 003°22'9 9.2
2016-Jul-19 16:33N 47°08' W 003°21'10 9.1
2016-Jul-19 15:30N 46°59' W 003°21'9 0.8
2016-Jul-19 04:27N 46°50' W 003°21'7 3.7
2016-Jul-19 02:33N 46°45' W 003°13'1 0.0
2016-Jul-18 10:33N 46°44' W 003°14'22 3.5
2016-Jul-18 04:27N 47°05' W 003°25'9 8.0
2016-Jul-18 03:17N 47°14' W 003°25'7 9.2
2016-Jul-18 02:30N 47°21' W 003°24'9 9.2
2016-Jul-18 01:33N 47°30' W 003°23'9 9.3
2016-Jul-18 00:33N 47°39' W 003°22'5 0.1
2016-Jul-15 21:33N 47°44' W 003°22'5 5.2
2016-Jul-15 20:33N 47°39' W 003°22'9 9.1
2016-Jul-15 19:33N 47°30' W 003°23'9 8.8
2016-Jul-15 18:33N 47°21' W 003°24'9 8.9
2016-Jul-15 17:33N 47°12' W 003°24'7 0.6
2016-Jul-15 06:18N 47°05' W 003°25'15 5.6
2016-Jul-15 03:33N 47°20' W 003°24'9 9.3
2016-Jul-15 02:33N 47°29' W 003°23'9 9.4
2016-Jul-15 01:33N 47°39' W 003°22'5 5.1
2016-Jul-15 00:33N 47°44' W 003°22'8 7.8
2016-Jul-14 23:33N 47°36' W 003°22'9 9.0
2016-Jul-14 22:33N 47°27' W 003°23'9 8.8
2016-Jul-14 21:33N 47°18' W 003°24'  

Dump ship's entire track history